Time;durP1;ratioP1;P1;durP2;ratioP2;P2;SDS_P1;SDS_P2;PMS_P1;PMS_P2;Temp;Humidity;BMP_temperature;BMP_pressure;BME280_temperature;BME280_humidity;BME280_pressure;Samples;Min_cycle;Max_cycle;Signal;HPM_P1;HPM_P2
2022/07/19 00:00:52;;;;;;;19.02;5.35;;;23.80;89.60;;;;;;7343977;19;109300;-89
2022/07/19 00:03:21;;;;;;;16.45;5.65;;;23.70;90.00;;;;;;7340122;19;108215;-89
2022/07/19 00:05:49;;;;;;;43.42;5.82;;;23.60;90.60;;;;;;7342769;19;108134;-89
2022/07/19 00:08:16;;;;;;;28.42;6.22;;;23.60;90.90;;;;;;7340424;19;108903;-89
2022/07/19 00:10:43;;;;;;;19.13;4.40;;;23.50;90.90;;;;;;7341992;19;110150;-88
2022/07/19 00:13:10;;;;;;;32.85;11.00;;;23.50;90.90;;;;;;7342041;19;108512;-89
2022/07/19 00:15:37;;;;;;;28.42;6.65;;;23.50;91.10;;;;;;7344127;19;111137;-88
2022/07/19 00:18:05;;;;;;;16.30;5.28;;;23.40;91.30;;;;;;7342002;19;108525;-89
2022/07/19 00:20:32;;;;;;;15.05;4.57;;;23.40;91.40;;;;;;7344846;19;108849;-88
2022/07/19 00:22:59;;;;;;;15.48;4.60;;;23.30;91.40;;;;;;7343554;19;108043;-88
2022/07/19 00:25:26;;;;;;;12.80;3.63;;;23.30;91.60;;;;;;7345836;19;107508;-88
2022/07/19 00:27:53;;;;;;;11.43;4.10;;;23.30;91.50;;;;;;7344327;19;108974;-88
2022/07/19 00:30:20;;;;;;;17.77;4.22;;;23.30;91.50;;;;;;7341539;19;107428;-89
2022/07/19 00:32:47;;;;;;;15.82;4.10;;;23.20;91.60;;;;;;7343322;19;108530;-89
2022/07/19 00:35:14;;;;;;;15.02;3.97;;;23.20;91.70;;;;;;7343622;19;109784;-89
2022/07/19 00:37:42;;;;;;;16.70;4.80;;;23.10;91.90;;;;;;7347353;19;107833;-88
2022/07/19 00:40:20;;;;;;;29.35;7.05;;;23.00;92.10;;;;;;7342523;19;108647;-88
2022/07/19 00:42:47;;;;;;;31.77;6.65;;;22.90;93.10;;;;;;7343034;19;108043;-89
2022/07/19 00:45:14;;;;;;;21.52;6.45;;;22.80;93.00;;;;;;7344951;19;108152;-88
2022/07/19 00:47:41;;;;;;;26.42;4.43;;;22.90;93.00;;;;;;7342672;19;109000;-89
2022/07/19 00:50:09;;;;;;;15.48;4.53;;;22.90;92.70;;;;;;7339209;19;110519;-89
2022/07/19 00:52:38;;;;;;;19.35;4.13;;;22.90;92.60;;;;;;7343933;19;110204;-89
2022/07/19 00:55:07;;;;;;;11.85;3.90;;;22.90;92.60;;;;;;7341448;19;109367;-89
2022/07/19 00:57:37;;;;;;;18.75;5.10;;;22.80;92.60;;;;;;7350019;19;111142;-89
2022/07/19 01:00:07;;;;;;;14.63;4.57;;;22.70;92.90;;;;;;7343758;19;109022;-88
2022/07/19 01:02:35;;;;;;;12.48;4.45;;;22.70;93.00;;;;;;7342087;19;110148;-89
2022/07/19 01:05:07;;;;;;;14.45;4.50;;;22.70;93.10;;;;;;7340938;19;112009;-88
2022/07/19 01:07:35;;;;;;;14.15;4.55;;;22.60;93.10;;;;;;7344449;19;111202;-88
2022/07/19 01:10:04;;;;;;;10.52;4.22;;;22.60;93.40;;;;;;7337633;19;107408;-88
2022/07/19 01:12:34;;;;;;;7.07;3.22;;;22.50;93.60;;;;;;7343090;19;107501;-87
2022/07/19 01:15:11;;;;;;;6.55;3.13;;;22.50;93.60;;;;;;7342737;19;111562;-87
2022/07/19 01:17:38;;;;;;;8.75;3.42;;;22.50;93.30;;;;;;7341023;19;109058;-88
2022/07/19 01:20:06;;;;;;;10.30;3.28;;;22.50;93.30;;;;;;7345395;19;108360;-88
2022/07/19 01:22:33;;;;;;;7.90;2.88;;;22.50;93.40;;;;;;7341286;19;108072;-88
2022/07/19 01:25:00;;;;;;;7.00;3.17;;;22.40;93.50;;;;;;7341639;19;109757;-88
2022/07/19 01:27:27;;;;;;;7.93;2.85;;;22.30;93.70;;;;;;7343677;19;112205;-88
2022/07/19 01:29:54;;;;;;;7.70;2.95;;;22.20;93.90;;;;;;7341980;19;107804;-87
2022/07/19 01:32:21;;;;;;;9.38;3.33;;;22.20;93.90;;;;;;7340249;19;111464;-89
2022/07/19 01:34:48;;;;;;;8.27;2.95;;;22.20;93.80;;;;;;7341724;19;108751;-87
2022/07/19 01:37:15;;;;;;;6.88;3.10;;;22.20;93.70;;;;;;7341100;19;107820;-88
2022/07/19 01:39:42;;;;;;;7.47;2.72;;;22.20;93.70;;;;;;7340919;19;108632;-89
2022/07/19 01:42:10;;;;;;;6.65;2.83;;;22.10;93.70;;;;;;7345628;19;109667;-89
2022/07/19 01:44:37;;;;;;;6.13;2.95;;;22.10;93.60;;;;;;7342456;19;110724;-88
2022/07/19 01:47:04;;;;;;;10.60;3.25;;;22.00;93.90;;;;;;7340323;19;109106;-89
2022/07/19 01:49:31;;;;;;;8.68;2.88;;;22.00;94.10;;;;;;7339203;19;108664;-88
2022/07/19 01:51:58;;;;;;;4.57;2.78;;;21.90;94.30;;;;;;7341618;19;107933;-88
2022/07/19 01:54:25;;;;;;;6.03;2.83;;;21.90;94.10;;;;;;7341308;19;109317;-88
2022/07/19 01:56:52;;;;;;;9.00;3.35;;;21.90;94.30;;;;;;7341653;19;108278;-88
2022/07/19 01:59:19;;;;;;;10.90;3.40;;;21.90;94.20;;;;;;7342676;19;107248;-89
2022/07/19 02:01:46;;;;;;;6.07;3.08;;;21.90;94.30;;;;;;7339109;19;111134;-88
2022/07/19 02:04:13;;;;;;;6.38;3.35;;;21.80;94.60;;;;;;7346639;19;108356;-89
2022/07/19 02:06:40;;;;;;;7.68;3.25;;;21.80;94.60;;;;;;7342086;19;109249;-88
2022/07/19 02:09:07;;;;;;;10.70;3.40;;;21.70;94.80;;;;;;7340827;19;108140;-88
2022/07/19 02:11:34;;;;;;;8.45;3.25;;;21.70;94.90;;;;;;7340383;19;110123;-88
2022/07/19 02:14:04;;;;;;;10.07;3.40;;;21.70;95.00;;;;;;7338501;19;108795;-88
2022/07/19 02:16:31;;;;;;;9.63;3.80;;;21.60;95.10;;;;;;7340407;19;108004;-88
2022/07/19 02:18:58;;;;;;;7.78;3.58;;;21.60;95.50;;;;;;7341165;19;110678;-88
2022/07/19 02:21:25;;;;;;;11.60;3.72;;;21.50;95.70;;;;;;7345123;19;109139;-88
2022/07/19 02:23:52;;;;;;;8.18;3.13;;;21.50;96.20;;;;;;7347768;19;108061;-89
2022/07/19 02:26:19;;;;;;;6.38;3.30;;;21.50;95.80;;;;;;7352024;19;107370;-88
2022/07/19 02:28:46;;;;;;;7.50;2.80;;;21.50;95.80;;;;;;7348839;19;108304;-88
2022/07/19 02:31:13;;;;;;;8.80;3.47;;;21.50;95.80;;;;;;7348723;19;110992;-88
2022/07/19 02:33:40;;;;;;;9.02;3.20;;;21.50;95.80;;;;;;7346897;19;109628;-89
2022/07/19 02:36:08;;;;;;;4.72;2.88;;;21.50;95.70;;;;;;7346622;19;108442;-88
2022/07/19 02:38:35;;;;;;;6.32;2.83;;;21.50;95.90;;;;;;7344104;19;108643;-88
2022/07/19 02:41:02;;;;;;;14.43;3.65;;;21.40;96.00;;;;;;7346637;19;108732;-88
2022/07/19 02:43:29;;;;;;;25.95;3.58;;;21.40;96.30;;;;;;7345380;19;108063;-88
2022/07/19 02:45:56;;;;;;;15.05;3.50;;;21.40;96.50;;;;;;7346531;19;109062;-88
2022/07/19 02:48:23;;;;;;;9.75;3.20;;;21.30;96.60;;;;;;7351157;19;109360;-89
2022/07/19 02:50:50;;;;;;;20.17;3.53;;;21.30;96.70;;;;;;7344483;19;108360;-89
2022/07/19 02:53:17;;;;;;;23.45;4.10;;;21.20;97.00;;;;;;7347633;19;108665;-88
2022/07/19 02:55:44;;;;;;;14.82;2.90;;;21.10;97.20;;;;;;7348252;19;108614;-89
2022/07/19 02:58:11;;;;;;;8.48;3.15;;;21.10;97.20;;;;;;7348583;19;108952;-88
2022/07/19 03:00:38;;;;;;;8.38;3.13;;;21.10;97.20;;;;;;7348923;19;109247;-89
2022/07/19 03:05:52;;;;;;;7.32;2.83;;;21.10;97.10;;;;;;7347644;19;109022;-88
2022/07/19 03:08:19;;;;;;;10.35;3.47;;;21.10;97.20;;;;;;7351922;19;112662;-89
2022/07/19 03:10:46;;;;;;;7.88;3.40;;;21.10;97.20;;;;;;7342670;19;110997;-88
2022/07/19 03:13:13;;;;;;;9.38;3.33;;;21.10;97.10;;;;;;7344294;19;108275;-88
2022/07/19 03:15:40;;;;;;;6.90;3.38;;;21.10;97.10;;;;;;7343494;19;111757;-87
2022/07/19 03:18:07;;;;;;;5.28;3.00;;;21.10;97.00;;;;;;7345239;19;108198;-89
2022/07/19 03:20:35;;;;;;;27.50;5.53;;;21.00;97.00;;;;;;7344835;19;112217;-89
2022/07/19 03:23:02;;;;;;;16.05;3.95;;;21.00;97.30;;;;;;7349219;19;108331;-90
2022/07/19 03:25:29;;;;;;;6.68;3.42;;;21.00;97.10;;;;;;7347292;19;107945;-88
2022/07/19 03:27:56;;;;;;;6.00;3.33;;;21.00;96.90;;;;;;7348774;19;109172;-89
2022/07/19 03:30:23;;;;;;;6.32;3.15;;;21.00;96.90;;;;;;7353522;19;107958;-89
2022/07/19 03:32:51;;;;;;;7.97;3.42;;;21.00;96.80;;;;;;7347371;19;109662;-90
2022/07/19 03:35:19;;;;;;;7.70;3.33;;;21.00;96.70;;;;;;7347178;19;108361;-88
2022/07/19 03:37:46;;;;;;;5.50;3.30;;;21.00;96.80;;;;;;7346663;19;108189;-89
2022/07/19 03:40:14;;;;;;;7.78;2.85;;;21.00;96.70;;;;;;7347977;19;110298;-89
2022/07/19 03:42:41;;;;;;;7.65;3.10;;;21.00;96.50;;;;;;7348618;19;107814;-90
2022/07/19 03:45:08;;;;;;;13.40;3.75;;;20.90;96.80;;;;;;7347460;19;108150;-89
2022/07/19 03:47:35;;;;;;;6.47;3.00;;;20.90;96.50;;;;;;7345681;19;109237;-89
2022/07/19 03:50:04;;;;;;;9.23;3.58;;;20.90;96.50;;;;;;7343494;19;109166;-89
2022/07/19 03:52:31;;;;;;;10.30;3.72;;;20.90;96.50;;;;;;7349320;19;107603;-89
2022/07/19 03:54:58;;;;;;;11.50;3.60;;;20.90;96.80;;;;;;7347622;19;108166;-88
2022/07/19 03:57:25;;;;;;;15.93;3.47;;;20.90;97.00;;;;;;7345738;19;108809;-89
2022/07/19 03:59:52;;;;;;;9.48;3.85;;;20.80;96.80;;;;;;7347245;19;109110;-89
2022/07/19 04:02:19;;;;;;;5.68;3.80;;;20.80;96.80;;;;;;7346506;19;108087;-89
2022/07/19 04:04:46;;;;;;;8.20;3.33;;;20.90;96.80;;;;;;7345675;19;109152;-90
2022/07/19 04:07:13;;;;;;;4.80;3.40;;;20.80;96.90;;;;;;7345126;19;107273;-88
2022/07/19 04:09:40;;;;;;;10.85;3.72;;;20.80;97.10;;;;;;7346494;19;108033;-89
2022/07/19 04:12:07;;;;;;;13.27;4.70;;;20.80;97.30;;;;;;7347821;19;108681;-89
2022/07/19 04:14:34;;;;;;;42.40;15.90;;;20.80;97.40;;;;;;7350723;19;108740;-89
2022/07/19 04:17:04;;;;;;;28.40;12.68;;;20.70;97.90;;;;;;7342624;19;113635;-88
2022/07/19 04:19:31;;;;;;;201.60;81.18;;;20.70;98.20;;;;;;7341778;19;110053;-89
2022/07/19 04:21:58;;;;;;;144.90;58.53;;;20.60;98.60;;;;;;7342638;19;111881;-89
2022/07/19 04:24:25;;;;;;;62.58;23.67;;;20.50;98.80;;;;;;7342909;19;112913;-89
2022/07/19 04:26:53;;;;;;;96.70;38.70;;;20.50;99.10;;;;;;7343131;19;110378;-89
2022/07/19 04:29:20;;;;;;;86.90;34.80;;;20.50;99.50;;;;;;7339733;19;112048;-89
2022/07/19 04:31:47;;;;;;;78.00;29.88;;;20.50;99.60;;;;;;7339034;19;114570;-88
2022/07/19 04:34:14;;;;;;;70.97;26.90;;;20.40;99.60;;;;;;7341308;19;110405;-89
2022/07/19 04:36:41;;;;;;;57.58;22.30;;;20.40;99.40;;;;;;7345073;19;111698;-88
2022/07/19 04:39:08;;;;;;;42.92;17.60;;;20.50;99.50;;;;;;7339593;19;110194;-88
2022/07/19 04:41:36;;;;;;;34.65;13.57;;;20.60;99.30;;;;;;7340234;19;111873;-90
2022/07/19 04:44:03;;;;;;;31.23;11.90;;;20.60;99.10;;;;;;7340975;19;110841;-89
2022/07/19 04:46:31;;;;;;;38.08;11.55;;;20.70;99.10;;;;;;7340607;19;110307;-90
2022/07/19 04:48:58;;;;;;;23.90;10.93;;;20.70;98.90;;;;;;7341154;19;111598;-90
2022/07/19 04:51:25;;;;;;;31.73;10.52;;;20.80;99.10;;;;;;7338210;19;111604;-89
2022/07/19 04:53:53;;;;;;;23.50;10.25;;;20.80;99.20;;;;;;7342018;19;109865;-89
2022/07/19 04:56:20;;;;;;;20.20;9.90;;;20.80;99.10;;;;;;7341638;19;111913;-89
2022/07/19 04:58:47;;;;;;;22.75;9.90;;;20.90;99.10;;;;;;7351435;19;109125;-89
2022/07/19 05:01:14;;;;;;;21.27;8.40;;;20.90;98.90;;;;;;7346509;19;107386;-89
2022/07/19 05:03:41;;;;;;;18.40;6.80;;;21.00;98.90;;;;;;7345638;19;110152;-90
2022/07/19 05:06:08;;;;;;;11.48;6.57;;;21.00;99.00;;;;;;7346830;19;107896;-91
2022/07/19 05:08:35;;;;;;;12.30;6.20;;;21.10;98.70;;;;;;7347625;19;108002;-91
2022/07/19 05:11:02;;;;;;;15.65;5.30;;;21.10;98.60;;;;;;7345759;19;111373;-92
2022/07/19 05:13:29;;;;;;;15.57;4.50;;;21.20;98.60;;;;;;7344984;19;111464;-93
2022/07/19 05:15:57;;;;;;;6.85;4.45;;;21.20;98.70;;;;;;7350451;19;110645;-96
2022/07/19 05:18:27;;;;;;;9.90;4.57;;;21.20;98.40;;;;;;7357335;19;106414;-96
2022/07/19 05:20:54;;;;;;;6.93;4.30;;;21.30;98.90;;;;;;7350784;19;110026;-95
2022/07/19 05:23:22;;;;;;;9.27;4.00;;;21.30;98.70;;;;;;7355049;19;108299;-96
2022/07/19 05:25:49;;;;;;;10.10;3.67;;;21.40;98.30;;;;;;7361408;19;107020;-96
2022/07/19 05:34:01;;;;;;;17.25;3.65;;;21.70;98.80;;;;;;7337837;19;107875;-69
2022/07/19 05:36:29;;;;;;;18.00;4.20;;;21.80;98.40;;;;;;7338713;19;109182;-69
2022/07/19 05:38:56;;;;;;;13.32;3.70;;;21.90;98.40;;;;;;7335501;19;108309;-69
2022/07/19 05:41:23;;;;;;;21.42;3.70;;;22.00;98.40;;;;;;7341948;19;111032;-69
2022/07/19 05:43:51;;;;;;;24.55;3.47;;;22.10;98.40;;;;;;7335680;19;108233;-69
2022/07/19 05:46:19;;;;;;;23.65;4.00;;;22.20;98.30;;;;;;7337011;19;108857;-69
2022/07/19 05:48:46;;;;;;;12.07;2.90;;;22.20;98.10;;;;;;7332236;19;111364;-69
2022/07/19 05:51:14;;;;;;;26.52;3.35;;;22.30;98.10;;;;;;7330348;19;111560;-69
2022/07/19 05:53:41;;;;;;;23.50;3.38;;;22.40;98.10;;;;;;7334545;19;113319;-69
2022/07/19 05:56:09;;;;;;;12.95;2.95;;;22.50;98.00;;;;;;7339947;19;109012;-70
2022/07/19 05:58:36;;;;;;;7.05;2.55;;;22.60;98.20;;;;;;7351791;19;108266;-69
2022/07/19 06:01:19;;;;;;;33.78;4.72;;;22.70;98.10;;;;;;7350847;19;109259;-69
2022/07/19 06:03:54;;;;;;;6.75;2.75;;;22.80;98.20;;;;;;7354431;19;109551;-69
2022/07/19 06:06:27;;;;;;;9.38;2.50;;;22.90;97.90;;;;;;7352310;19;108999;-69
2022/07/19 06:08:55;;;;;;;7.05;2.75;;;23.00;97.70;;;;;;7347372;19;108283;-69
2022/07/19 06:11:23;;;;;;;6.57;3.13;;;23.10;97.80;;;;;;7350216;19;107833;-69
2022/07/19 06:13:50;;;;;;;12.25;2.92;;;23.20;97.20;;;;;;7345820;19;108701;-69
2022/07/19 06:16:18;;;;;;;4.65;3.10;;;23.30;96.70;;;;;;7345146;19;110583;-69
2022/07/19 06:18:46;;;;;;;4.88;2.17;;;23.40;96.70;;;;;;7347985;19;110678;-69
2022/07/19 06:21:17;;;;;;;12.65;2.45;;;23.50;96.40;;;;;;7346906;19;109176;-69
2022/07/19 06:23:45;;;;;;;9.15;2.28;;;23.60;96.50;;;;;;7343065;19;108022;-69
2022/07/19 06:26:13;;;;;;;7.90;2.08;;;23.70;96.20;;;;;;7352842;19;110330;-69
2022/07/19 06:28:40;;;;;;;7.13;2.22;;;23.90;96.10;;;;;;7348279;19;107899;-69
2022/07/19 06:31:11;;;;;;;8.32;2.35;;;24.00;95.90;;;;;;7348118;19;108906;-69
2022/07/19 06:33:44;;;;;;;7.82;2.13;;;24.10;95.70;;;;;;7342714;19;109694;-69
2022/07/19 06:36:12;;;;;;;5.13;1.73;;;24.20;95.90;;;;;;7344168;19;108336;-69
2022/07/19 06:38:39;;;;;;;8.18;1.80;;;24.30;95.30;;;;;;7344439;19;107292;-69
2022/07/19 06:41:06;;;;;;;7.18;2.05;;;24.40;95.20;;;;;;7345599;19;108619;-69
2022/07/19 06:43:34;;;;;;;5.40;1.88;;;24.50;95.20;;;;;;7349349;19;107693;-69
2022/07/19 06:46:01;;;;;;;8.30;2.13;;;24.60;94.60;;;;;;7344804;19;108405;-69
2022/07/19 06:48:28;;;;;;;8.43;1.77;;;24.70;94.80;;;;;;7352195;19;109676;-69
2022/07/19 06:50:55;;;;;;;6.28;2.22;;;24.90;94.00;;;;;;7345246;19;107690;-69
2022/07/19 06:53:22;;;;;;;7.20;2.40;;;25.00;94.30;;;;;;7343037;19;109405;-69
2022/07/19 06:55:49;;;;;;;13.20;3.58;;;25.10;94.30;;;;;;7349560;19;108669;-69
2022/07/19 06:58:16;;;;;;;10.80;2.17;;;25.30;94.30;;;;;;7344913;19;109189;-69
2022/07/19 07:00:44;;;;;;;5.68;2.13;;;25.40;94.20;;;;;;7347903;19;108871;-69
2022/07/19 07:03:11;;;;;;;14.18;2.70;;;25.60;93.80;;;;;;7347419;19;107119;-69
2022/07/19 07:05:38;;;;;;;6.85;3.50;;;25.70;93.70;;;;;;7349839;19;107293;-69
2022/07/19 07:08:05;;;;;;;14.50;5.18;;;25.80;93.70;;;;;;7340356;19;109424;-69
2022/07/19 07:10:32;;;;;;;6.68;2.88;;;25.90;93.70;;;;;;7342564;19;107212;-69
2022/07/19 07:12:59;;;;;;;9.05;4.20;;;26.10;93.60;;;;;;7337303;19;108667;-69
2022/07/19 07:15:26;;;;;;;6.20;3.92;;;26.20;93.00;;;;;;7340793;19;108343;-69
2022/07/19 07:17:53;;;;;;;6.22;2.22;;;26.20;92.80;;;;;;7339455;19;108052;-69
2022/07/19 07:20:20;;;;;;;4.38;2.38;;;26.40;92.80;;;;;;7339163;19;108856;-70
2022/07/19 07:22:47;;;;;;;20.13;3.67;;;26.50;93.00;;;;;;7341629;19;107309;-70
2022/07/19 07:25:14;;;;;;;6.20;3.10;;;26.60;92.80;;;;;;7341234;19;108700;-70
2022/07/19 07:27:42;;;;;;;6.38;1.90;;;26.70;92.70;;;;;;7339603;19;108978;-69
2022/07/19 07:30:10;;;;;;;5.70;2.58;;;26.80;92.90;;;;;;7340779;19;108076;-69
2022/07/19 07:32:37;;;;;;;11.70;2.30;;;27.00;92.00;;;;;;7332021;19;108530;-69
2022/07/19 07:35:05;;;;;;;2.90;1.60;;;27.10;92.30;;;;;;7337395;19;108138;-70
2022/07/19 07:37:32;;;;;;;6.65;1.70;;;27.20;92.00;;;;;;7338446;19;108575;-69
2022/07/19 07:39:59;;;;;;;10.60;3.78;;;27.40;91.50;;;;;;7337929;19;108165;-69
2022/07/19 07:42:26;;;;;;;9.00;3.03;;;27.50;91.70;;;;;;7337038;19;107217;-69
2022/07/19 07:44:53;;;;;;;6.10;2.67;;;27.70;91.50;;;;;;7338672;19;108000;-70
2022/07/19 07:47:20;;;;;;;5.75;1.80;;;27.80;90.70;;;;;;7335992;19;108545;-69
2022/07/19 07:49:49;;;;;;;6.07;1.80;;;27.90;90.90;;;;;;7335930;19;108705;-69
2022/07/19 07:52:16;;;;;;;7.70;1.80;;;28.10;90.30;;;;;;7342752;19;107881;-69
2022/07/19 07:54:43;;;;;;;12.35;4.10;;;28.10;89.80;;;;;;7332784;19;108090;-70
2022/07/19 07:57:30;;;;;;;11.40;3.35;;;28.30;87.60;;;;;;7332363;19;109723;-70
2022/07/19 07:59:58;;;;;;;11.60;1.90;;;28.40;87.10;;;;;;7339083;19;108333;-69
2022/07/19 08:02:25;;;;;;;5.38;1.90;;;28.50;88.60;;;;;;7334269;19;107967;-69
2022/07/19 08:04:52;;;;;;;8.02;1.58;;;28.70;87.50;;;;;;7337057;19;108221;-69
2022/07/19 08:07:19;;;;;;;5.55;1.52;;;28.80;87.30;;;;;;7334951;19;108663;-70
2022/07/19 08:09:46;;;;;;;5.47;2.22;;;29.00;88.30;;;;;;7334262;19;112439;-70
2022/07/19 08:12:14;;;;;;;9.18;2.30;;;29.10;88.10;;;;;;7337139;19;108073;-69
2022/07/19 08:14:41;;;;;;;7.32;2.30;;;29.30;86.20;;;;;;7337681;19;107843;-70
2022/07/19 08:17:08;;;;;;;10.20;2.35;;;29.30;85.50;;;;;;7334837;19;108111;-69
2022/07/19 08:19:35;;;;;;;8.57;3.08;;;29.50;85.70;;;;;;7334643;19;109199;-70
2022/07/19 08:22:02;;;;;;;10.95;3.05;;;29.60;83.90;;;;;;7333411;19;108079;-69
2022/07/19 08:24:29;;;;;;;6.57;2.70;;;29.70;82.20;;;;;;7336168;19;110987;-70
2022/07/19 08:26:56;;;;;;;7.60;2.47;;;29.80;82.20;;;;;;7335374;19;108381;-69
2022/07/19 08:29:23;;;;;;;4.63;2.10;;;30.00;82.10;;;;;;7338938;19;108773;-69
2022/07/19 08:31:50;;;;;;;11.50;2.13;;;30.10;82.20;;;;;;7335048;19;108427;-68
2022/07/19 08:34:18;;;;;;;10.13;3.20;;;30.30;82.80;;;;;;7337759;19;108915;-69
2022/07/19 08:36:45;;;;;;;10.00;2.30;;;30.40;82.40;;;;;;7342651;19;108142;-70
2022/07/19 08:39:12;;;;;;;7.40;2.17;;;30.60;80.20;;;;;;7337405;19;108616;-69
2022/07/19 08:41:41;;;;;;;5.63;2.75;;;30.70;80.00;;;;;;7339328;19;108431;-69
2022/07/19 08:44:10;;;;;;;3.80;2.00;;;30.80;78.90;;;;;;7338344;19;108264;-70
2022/07/19 08:46:38;;;;;;;3.38;1.90;;;30.90;79.50;;;;;;7337191;19;108744;-69
2022/07/19 08:49:06;;;;;;;3.72;1.70;;;31.00;79.30;;;;;;7337283;19;107991;-69
2022/07/19 08:51:33;;;;;;;3.35;1.90;;;31.20;78.60;;;;;;7337740;19;107228;-69
2022/07/19 08:54:01;;;;;;;4.32;1.70;;;31.30;77.10;;;;;;7339136;19;109200;-69
2022/07/19 08:59:15;;;;;;;4.78;2.17;;;31.50;75.30;;;;;;7343381;19;108223;-69
2022/07/19 09:01:42;;;;;;;11.27;2.42;;;31.60;73.60;;;;;;7334382;19;111579;-70
2022/07/19 09:04:15;;;;;;;9.00;2.58;;;31.80;73.50;;;;;;7337547;19;108102;-70
2022/07/19 09:06:49;;;;;;;9.18;2.40;;;31.90;70.90;;;;;;7337535;19;108902;-70
2022/07/19 09:09:20;;;;;;;6.68;1.60;;;32.00;71.50;;;;;;7339549;19;108224;-70
2022/07/19 09:11:51;;;;;;;13.13;1.95;;;32.00;70.60;;;;;;7339010;19;108950;-69
2022/07/19 09:14:28;;;;;;;7.82;2.28;;;32.10;68.20;;;;;;7337893;19;107684;-69
2022/07/19 09:17:06;;;;;;;4.07;1.67;;;32.20;69.10;;;;;;7337035;19;107781;-69
2022/07/19 09:19:46;;;;;;;7.00;2.47;;;32.40;69.30;;;;;;7343047;19;107226;-70
2022/07/19 09:22:17;;;;;;;14.35;4.75;;;32.50;68.70;;;;;;7337585;19;107442;-70
2022/07/19 09:24:50;;;;;;;9.48;2.33;;;32.60;67.20;;;;;;7338092;19;107779;-69
2022/07/19 09:27:19;;;;;;;5.20;2.50;;;32.70;66.80;;;;;;7336802;19;107910;-70
2022/07/19 09:29:52;;;;;;;6.60;2.15;;;32.80;63.70;;;;;;7335463;19;109318;-70
2022/07/19 09:32:21;;;;;;;4.35;2.70;;;33.00;65.90;;;;;;7332403;19;108118;-69
2022/07/19 09:34:55;;;;;;;9.00;2.40;;;33.00;64.50;;;;;;7337720;19;109046;-69
2022/07/19 09:37:28;;;;;;;10.00;1.83;;;33.10;65.30;;;;;;7338262;19;109032;-70
2022/07/19 09:39:58;;;;;;;3.47;1.67;;;33.20;64.10;;;;;;7336416;19;107273;-69
2022/07/19 09:42:39;;;;;;;5.93;1.70;;;33.30;64.30;;;;;;7341805;19;109037;-70
2022/07/19 09:45:11;;;;;;;6.20;2.10;;;33.50;62.70;;;;;;7336151;19;108273;-70
2022/07/19 09:47:41;;;;;;;9.52;1.92;;;33.50;63.00;;;;;;7334655;19;107852;-70
2022/07/19 09:50:16;;;;;;;7.15;2.15;;;33.70;62.90;;;;;;7337524;19;108013;-70
2022/07/19 09:52:45;;;;;;;11.70;4.25;;;33.80;61.10;;;;;;7337184;19;107716;-70
2022/07/19 09:55:16;;;;;;;5.20;2.10;;;33.90;61.70;;;;;;7338298;19;108034;-70
2022/07/19 09:57:45;;;;;;;4.25;1.80;;;34.00;61.80;;;;;;7338031;19;108124;-70
2022/07/19 10:00:15;;;;;;;9.15;2.38;;;34.10;60.90;;;;;;7333410;19;107163;-70
2022/07/19 10:02:45;;;;;;;5.97;1.95;;;34.20;60.70;;;;;;7334524;19;109127;-70
2022/07/19 10:05:13;;;;;;;6.90;2.22;;;34.30;59.90;;;;;;7341136;19;107359;-70
2022/07/19 10:07:41;;;;;;;3.55;1.40;;;34.50;60.60;;;;;;7336300;19;108784;-70
2022/07/19 10:10:11;;;;;;;6.30;1.95;;;34.60;59.60;;;;;;7331501;19;107542;-70
2022/07/19 10:12:39;;;;;;;4.72;2.33;;;34.70;57.90;;;;;;7331756;19;107950;-70
2022/07/19 10:15:09;;;;;;;3.25;1.90;;;34.80;57.60;;;;;;7329479;19;112509;-70
2022/07/19 10:17:37;;;;;;;5.30;2.33;;;34.90;57.00;;;;;;7330992;19;108661;-67
2022/07/19 10:20:07;;;;;;;4.40;2.33;;;34.90;55.80;;;;;;7333381;19;108640;-67
2022/07/19 10:22:38;;;;;;;6.35;2.25;;;35.00;57.30;;;;;;7332190;19;112276;-67
2022/07/19 10:25:15;;;;;;;5.15;1.98;;;35.10;55.70;;;;;;7329050;19;108284;-70
2022/07/19 10:27:46;;;;;;;;;;;35.20;55.00;;;;;;7340601;19;108546;-69
2022/07/19 10:30:13;;;;;;;3.45;1.98;;;35.20;56.70;;;;;;7335741;19;107473;-70
2022/07/19 10:32:45;;;;;;;9.98;2.33;;;35.30;56.60;;;;;;7332180;19;108391;-70
2022/07/19 10:35:25;;;;;;;5.10;2.30;;;35.50;55.50;;;;;;7332150;19;110908;-70
2022/07/19 10:38:08;;;;;;;6.03;2.10;;;35.60;56.40;;;;;;7334106;19;108407;-70
2022/07/19 10:40:45;;;;;;;7.72;2.15;;;35.70;55.50;;;;;;7332385;19;108133;-70
2022/07/19 10:43:16;;;;;;;8.20;2.00;;;35.90;55.40;;;;;;7339653;19;108212;-70
2022/07/19 10:46:03;;;;;;;6.30;2.13;;;35.90;53.10;;;;;;7338441;19;108609;-70
2022/07/19 10:48:47;;;;;;;;;;;36.00;54.90;;;;;;7339263;19;107716;-70
2022/07/19 10:51:29;;;;;;;5.20;2.00;;;36.10;53.30;;;;;;7347679;19;109217;-70
2022/07/19 10:54:07;;;;;;;6.50;1.80;;;36.10;52.90;;;;;;7336222;19;107884;-70
2022/07/19 10:56:40;;;;;;;2.88;1.80;;;36.20;53.30;;;;;;7336586;19;112730;-69
2022/07/19 10:59:31;;;;;;;4.50;1.88;;;36.30;52.30;;;;;;7333634;19;107674;-69
2022/07/19 11:02:02;;;;;;;4.95;2.30;;;36.20;51.80;;;;;;7338681;19;108244;-70
2022/07/19 11:04:49;;;;;;;7.03;2.00;;;36.20;52.70;;;;;;7338387;19;108559;-70
2022/07/19 11:07:22;;;;;;;2.75;1.92;;;36.30;51.70;;;;;;7339006;19;109243;-70
2022/07/19 11:09:52;;;;;;;3.72;1.65;;;36.30;52.80;;;;;;7340285;19;108471;-70
2022/07/19 11:12:34;;;;;;;5.70;1.92;;;36.30;52.70;;;;;;7341136;19;111257;-70
2022/07/19 11:15:05;;;;;;;4.15;1.95;;;36.40;52.80;;;;;;7345763;19;107805;-70
2022/07/19 11:17:55;;;;;;;10.32;2.33;;;36.40;49.90;;;;;;7340897;19;109003;-69
2022/07/19 11:20:24;;;;;;;6.13;2.13;;;36.40;49.60;;;;;;7341494;19;107901;-70
2022/07/19 11:22:55;;;;;;;4.18;2.10;;;36.30;49.90;;;;;;7341099;19;107624;-69
2022/07/19 11:25:33;;;;;;;3.70;2.22;;;36.40;50.20;;;;;;7336559;19;108163;-69
2022/07/19 11:28:00;;;;;;;7.40;1.80;;;36.40;48.70;;;;;;7337483;19;111499;-70
2022/07/19 11:30:30;;;;;;;9.00;2.35;;;36.50;50.10;;;;;;7336112;19;107938;-70
2022/07/19 11:33:03;;;;;;;6.75;2.10;;;36.50;50.30;;;;;;7338828;19;108988;-69
2022/07/19 11:35:32;;;;;;;4.35;1.85;;;36.60;49.20;;;;;;7346134;19;107975;-69
2022/07/19 11:38:00;;;;;;;3.20;1.58;;;36.70;48.80;;;;;;7339969;19;108918;-69
2022/07/19 11:40:37;;;;;;;6.22;1.83;;;36.60;48.00;;;;;;7340267;19;107955;-70
2022/07/19 11:43:07;;;;;;;12.85;2.13;;;36.80;48.40;;;;;;7337981;19;107362;-70
2022/07/19 11:45:44;;;;;;;6.63;2.53;;;36.80;47.40;;;;;;7338599;19;109155;-69
2022/07/19 11:48:22;;;;;;;105.53;70.97;;;36.90;47.00;;;;;;7341863;19;107965;-69
2022/07/19 11:51:01;;;;;;;7.72;5.85;;;36.90;47.60;;;;;;7338968;19;112382;-69
2022/07/19 11:53:29;;;;;;;3.75;1.95;;;37.00;47.40;;;;;;7338812;19;109107;-69
2022/07/19 11:55:56;;;;;;;9.30;3.75;;;37.00;46.60;;;;;;7341888;19;109704;-69
2022/07/19 11:58:24;;;;;;;9.82;1.80;;;37.10;47.40;;;;;;7345002;19;107705;-69
2022/07/19 12:00:51;;;;;;;4.28;1.65;;;37.20;46.50;;;;;;7342068;19;108718;-69
2022/07/19 12:03:19;;;;;;;6.57;1.65;;;37.20;45.90;;;;;;7340452;19;108180;-69
2022/07/19 12:06:01;;;;;;;43.00;25.15;;;37.20;45.80;;;;;;7339665;19;107822;-69
2022/07/19 12:08:46;;;;;;;13.70;10.18;;;37.30;44.30;;;;;;7337502;19;109991;-69
2022/07/19 12:11:27;;;;;;;5.50;3.85;;;37.40;45.50;;;;;;7336849;19;111731;-69
2022/07/19 12:13:56;;;;;;;4.38;2.30;;;37.50;45.30;;;;;;7339999;19;110170;-69
2022/07/19 12:16:24;;;;;;;11.30;5.68;;;37.60;44.70;;;;;;7340083;19;108705;-70
2022/07/19 12:18:56;;;;;;;8.77;4.47;;;37.70;45.50;;;;;;7339926;19;107401;-69
2022/07/19 12:21:34;;;;;;;7.97;2.42;;;37.80;45.70;;;;;;7343685;19;108907;-70
2022/07/19 12:24:20;;;;;;;10.38;2.05;;;37.90;45.30;;;;;;7339396;19;107601;-69
2022/07/19 12:27:06;;;;;;;3.17;1.70;;;37.90;44.00;;;;;;7339814;19;107887;-69
2022/07/19 12:29:36;;;;;;;4.22;2.10;;;37.90;43.50;;;;;;7339587;19;107921;-69
2022/07/19 12:32:09;;;;;;;9.40;3.33;;;38.00;44.30;;;;;;7338787;19;107423;-69
2022/07/19 12:34:56;;;;;;;4.80;2.58;;;38.00;45.30;;;;;;7337409;19;109211;-69
2022/07/19 12:37:27;;;;;;;6.55;3.40;;;38.10;43.00;;;;;;7339722;19;107562;-69
2022/07/19 12:40:06;;;;;;;4.20;1.88;;;38.10;45.40;;;;;;7337224;19;108352;-70
2022/07/19 12:42:48;;;;;;;4.07;1.70;;;38.30;43.40;;;;;;7338334;19;109062;-70
2022/07/19 12:45:25;;;;;;;8.95;2.72;;;38.30;44.50;;;;;;7341678;19;107696;-70
2022/07/19 12:47:52;;;;;;;3.47;1.45;;;38.40;43.50;;;;;;7339414;19;108974;-70
2022/07/19 12:50:24;;;;;;;7.60;1.88;;;38.50;42.30;;;;;;7338943;19;107952;-69
2022/07/19 12:52:54;;;;;;;10.68;3.45;;;38.60;42.40;;;;;;7336343;19;107930;-70
2022/07/19 12:55:23;;;;;;;3.50;2.67;;;38.70;42.50;;;;;;7339072;19;108959;-70